Time;durP1;ratioP1;P1;durP2;ratioP2;P2;SDS_P1;SDS_P2;PMS_P1;PMS_P2;Temp;Humidity;BMP_temperature;BMP_pressure;BME280_temperature;BME280_humidity;BME280_pressure;Samples;Min_cycle;Max_cycle;Signal;HPM_P1;HPM_P2
2022/02/16 00:01:10;;;;;;;0.70;0.50;;;6.40;99.90;;;;;;4947432;29;20020;-75
2022/02/16 00:03:36;;;;;;;2.63;0.95;;;6.40;99.90;;;;;;4947664;29;20082;-75
2022/02/16 00:06:02;;;;;;;1.15;0.47;;;6.40;99.90;;;;;;4947000;29;20028;-74
2022/02/16 00:08:27;;;;;;;1.55;0.90;;;6.40;99.90;;;;;;4952412;29;20730;-73
2022/02/16 00:11:03;;;;;;;1.77;0.70;;;6.40;99.90;;;;;;4947639;29;20042;-77
2022/02/16 00:13:28;;;;;;;1.75;0.80;;;6.40;99.90;;;;;;4946448;29;20032;-74
2022/02/16 00:15:54;;;;;;;2.38;1.25;;;6.40;99.90;;;;;;4947192;29;20050;-75
2022/02/16 00:18:19;;;;;;;1.40;0.85;;;6.50;99.90;;;;;;4946478;29;20051;-76
2022/02/16 00:20:45;;;;;;;2.60;1.33;;;6.50;99.90;;;;;;4946230;29;20028;-74
2022/02/16 00:23:11;;;;;;;2.58;1.27;;;6.50;99.90;;;;;;4947212;29;20096;-73
2022/02/16 00:25:37;;;;;;;2.45;1.08;;;6.50;99.90;;;;;;4947787;29;20503;-73
2022/02/16 00:28:03;;;;;;;2.35;1.25;;;6.50;99.90;;;;;;4945977;29;20091;-76
2022/02/16 00:30:29;;;;;;;2.92;1.23;;;6.50;99.90;;;;;;4946992;29;20115;-75
2022/02/16 00:32:54;;;;;;;3.72;1.45;;;6.50;99.90;;;;;;4945019;29;20032;-76
2022/02/16 00:35:20;;;;;;;2.50;1.20;;;6.50;99.90;;;;;;4942594;29;20040;-75
2022/02/16 00:37:46;;;;;;;3.00;1.40;;;6.60;99.90;;;;;;4927987;29;20032;-75
2022/02/16 00:40:12;;;;;;;4.05;1.73;;;6.60;99.90;;;;;;4927117;29;20055;-75
2022/02/16 00:42:38;;;;;;;8.93;2.13;;;6.60;99.90;;;;;;4942734;29;20028;-77
2022/02/16 00:45:05;;;;;;;6.50;2.35;;;6.60;99.90;;;;;;4928323;29;20040;-77
2022/02/16 00:47:32;;;;;;;2.58;1.27;;;6.60;99.90;;;;;;4928608;29;20028;-74
2022/02/16 00:49:57;;;;;;;4.10;2.05;;;6.50;99.90;;;;;;4928241;29;20064;-74
2022/02/16 00:52:23;;;;;;;6.40;2.13;;;6.60;99.90;;;;;;4928109;29;20047;-75
2022/02/16 00:54:49;;;;;;;5.55;2.42;;;6.60;99.90;;;;;;4928324;29;20036;-74
2022/02/16 00:57:16;;;;;;;5.85;2.58;;;6.60;99.90;;;;;;4931466;29;20036;-74
2022/02/16 00:59:41;;;;;;;4.65;2.15;;;6.60;99.90;;;;;;4931913;29;20028;-75
2022/02/16 01:02:07;;;;;;;5.68;2.67;;;6.60;99.90;;;;;;4931949;29;20115;-75
2022/02/16 01:04:34;;;;;;;6.13;2.67;;;6.60;99.90;;;;;;4931740;29;20036;-77
2022/02/16 01:07:00;;;;;;;6.15;3.17;;;6.60;99.90;;;;;;4930894;29;20060;-76
2022/02/16 01:09:27;;;;;;;5.53;2.55;;;6.60;99.90;;;;;;4931900;29;20089;-76
2022/02/16 01:11:53;;;;;;;5.95;3.22;;;6.60;99.90;;;;;;4929956;29;20043;-75
2022/02/16 01:14:18;;;;;;;8.80;2.83;;;6.70;99.90;;;;;;4931853;29;20036;-75
2022/02/16 01:16:44;;;;;;;6.68;3.00;;;6.70;99.90;;;;;;4931505;29;20050;-76
2022/02/16 01:19:09;;;;;;;6.50;2.95;;;6.70;99.90;;;;;;4945987;29;20099;-78
2022/02/16 01:21:36;;;;;;;6.10;2.95;;;6.70;99.90;;;;;;4946207;29;20088;-76
2022/02/16 01:24:01;;;;;;;7.80;3.60;;;6.70;99.90;;;;;;4931952;29;20047;-76
2022/02/16 01:26:27;;;;;;;10.55;4.25;;;6.70;99.90;;;;;;4945822;29;20040;-76
2022/02/16 01:28:53;;;;;;;9.65;4.18;;;6.70;99.90;;;;;;4929947;29;20170;-74
2022/02/16 01:31:19;;;;;;;10.27;4.40;;;6.70;99.90;;;;;;4931492;29;20088;-74
2022/02/16 01:33:45;;;;;;;8.75;3.47;;;6.80;99.90;;;;;;4929682;29;20035;-76
2022/02/16 01:36:11;;;;;;;9.75;3.90;;;6.80;99.90;;;;;;4931310;29;20075;-75
2022/02/16 01:38:37;;;;;;;8.98;4.70;;;6.80;99.90;;;;;;4931273;29;20038;-74
2022/02/16 01:41:04;;;;;;;9.27;4.30;;;6.80;99.90;;;;;;4931766;29;20032;-77
2022/02/16 01:43:30;;;;;;;15.30;5.55;;;6.80;99.90;;;;;;4929955;29;20040;-75
2022/02/16 01:45:56;;;;;;;10.73;4.70;;;6.80;99.90;;;;;;4929817;29;20072;-77
2022/02/16 01:48:21;;;;;;;12.75;5.00;;;6.80;99.90;;;;;;4931306;29;20115;-76
2022/02/16 01:50:47;;;;;;;12.43;4.65;;;6.80;99.90;;;;;;4945838;29;20024;-76
2022/02/16 01:53:13;;;;;;;12.90;5.13;;;6.80;99.90;;;;;;4930950;29;20038;-75
2022/02/16 01:55:39;;;;;;;8.40;4.13;;;6.80;99.90;;;;;;4929861;29;20040;-76
2022/02/16 01:58:06;;;;;;;12.77;5.78;;;6.80;99.90;;;;;;4931190;29;20032;-77
2022/02/16 02:00:33;;;;;;;11.70;5.97;;;6.80;99.90;;;;;;4945359;29;20024;-77
2022/02/16 02:02:58;;;;;;;17.88;5.47;;;6.80;99.90;;;;;;4930850;29;20028;-74
2022/02/16 02:05:24;;;;;;;15.15;5.85;;;6.80;99.90;;;;;;4947163;29;20100;-73
2022/02/16 02:07:50;;;;;;;19.40;6.03;;;6.80;99.90;;;;;;4957793;29;20031;-77
2022/02/16 02:10:16;;;;;;;13.10;5.07;;;6.80;99.90;;;;;;4965288;28;20026;-75
2022/02/16 02:12:51;;;;;;;14.00;6.43;;;6.90;99.90;;;;;;4930822;29;20020;-76
2022/02/16 02:15:21;;;;;;;10.57;5.00;;;6.90;99.90;;;;;;4930332;29;20180;-75
2022/02/16 02:17:47;;;;;;;15.93;7.22;;;6.90;99.90;;;;;;4936924;29;20106;-72
2022/02/16 02:20:23;;;;;;;12.15;5.18;;;6.90;99.90;;;;;;4947956;29;20477;-76
2022/02/16 02:22:49;;;;;;;10.80;5.38;;;6.90;99.90;;;;;;4968705;29;20047;-75
2022/02/16 02:25:15;;;;;;;16.67;6.13;;;6.90;99.90;;;;;;4968802;29;20388;-77
2022/02/16 02:27:41;;;;;;;14.60;6.00;;;6.90;99.90;;;;;;4967101;29;20023;-75
2022/02/16 02:30:08;;;;;;;16.02;5.53;;;6.90;99.90;;;;;;4956522;29;20051;-75
2022/02/16 02:32:40;;;;;;;12.68;5.38;;;6.90;99.90;;;;;;4940416;29;20091;-77
2022/02/16 02:35:07;;;;;;;14.00;5.68;;;6.90;99.90;;;;;;4948610;28;20095;-75
2022/02/16 02:37:38;;;;;;;11.18;4.85;;;7.00;99.90;;;;;;4929326;29;20043;-77
2022/02/16 02:40:05;;;;;;;18.10;4.88;;;6.90;99.90;;;;;;4937240;29;20036;-75
2022/02/16 02:42:31;;;;;;;17.75;6.30;;;7.00;99.90;;;;;;4949357;29;20370;-75
2022/02/16 02:45:04;;;;;;;13.50;6.05;;;7.00;99.90;;;;;;4947862;29;20047;-76
2022/02/16 02:47:30;;;;;;;15.27;5.68;;;6.90;99.90;;;;;;4949154;29;20039;-75
2022/02/16 02:49:56;;;;;;;15.70;5.70;;;7.00;99.90;;;;;;4947867;29;20031;-75
2022/02/16 02:52:21;;;;;;;17.73;5.70;;;7.00;99.90;;;;;;4949066;29;20030;-76
2022/02/16 02:54:47;;;;;;;11.82;6.00;;;7.00;99.90;;;;;;4948655;29;20032;-75
2022/02/16 02:57:12;;;;;;;12.93;5.15;;;7.00;99.90;;;;;;4947603;29;20039;-75
2022/02/16 02:59:38;;;;;;;12.27;4.68;;;7.00;99.90;;;;;;4947460;29;20034;-75
2022/02/16 03:02:04;;;;;;;12.80;5.47;;;7.00;99.90;;;;;;4948798;29;20032;-76
2022/02/16 03:04:29;;;;;;;10.60;5.05;;;7.10;99.90;;;;;;4948970;29;20071;-74
2022/02/16 03:06:55;;;;;;;13.07;5.78;;;7.00;99.90;;;;;;4948484;29;20146;-75
2022/02/16 03:09:21;;;;;;;10.63;4.95;;;7.00;99.90;;;;;;4948476;29;20034;-75
2022/02/16 03:11:46;;;;;;;21.02;5.65;;;7.00;99.90;;;;;;4947533;29;20030;-74
2022/02/16 03:14:12;;;;;;;12.60;5.78;;;7.10;99.90;;;;;;4948272;29;20028;-73
2022/02/16 03:16:37;;;;;;;9.65;4.53;;;7.10;99.90;;;;;;4948387;29;20059;-76
2022/02/16 03:19:05;;;;;;;8.77;5.07;;;7.10;99.90;;;;;;4948340;29;20389;-75
2022/02/16 03:21:31;;;;;;;14.93;5.20;;;7.10;99.90;;;;;;4948396;29;20028;-75
2022/02/16 03:23:56;;;;;;;17.00;4.78;;;7.10;99.90;;;;;;4948457;29;20030;-74
2022/02/16 03:26:22;;;;;;;12.95;5.45;;;7.10;99.90;;;;;;4944010;29;20036;-76
2022/02/16 03:28:48;;;;;;;11.05;4.55;;;7.10;99.90;;;;;;4928758;29;20035;-76
2022/02/16 03:31:16;;;;;;;11.68;5.68;;;7.10;99.90;;;;;;4928038;29;20035;-76
2022/02/16 03:33:42;;;;;;;18.88;6.05;;;7.10;99.90;;;;;;4942611;29;20043;-74
2022/02/16 03:36:08;;;;;;;17.75;5.70;;;7.10;99.90;;;;;;4953331;29;20039;-74
2022/02/16 03:38:33;;;;;;;11.90;5.40;;;7.10;99.90;;;;;;4967314;29;20031;-77
2022/02/16 03:40:59;;;;;;;20.80;6.60;;;7.20;99.90;;;;;;4963213;29;20103;-77
2022/02/16 03:43:24;;;;;;;14.07;5.55;;;7.20;99.90;;;;;;4965636;29;20027;-74
2022/02/16 03:45:50;;;;;;;13.15;5.20;;;7.20;99.90;;;;;;4966046;29;20019;-74
2022/02/16 03:48:16;;;;;;;12.25;5.70;;;7.20;99.90;;;;;;4967377;29;20114;-76
2022/02/16 03:50:41;;;;;;;14.13;5.60;;;7.10;99.90;;;;;;4966715;29;20031;-74
2022/02/16 03:53:07;;;;;;;19.38;5.72;;;7.20;99.90;;;;;;4967308;29;20015;-74
2022/02/16 03:55:33;;;;;;;14.00;5.18;;;7.20;99.90;;;;;;4967197;29;20049;-75
2022/02/16 03:57:58;;;;;;;15.00;5.32;;;7.20;99.90;;;;;;4966850;29;20031;-75
2022/02/16 04:00:24;;;;;;;18.33;6.93;;;7.20;99.90;;;;;;4967165;29;20031;-75
2022/02/16 04:02:50;;;;;;;15.05;6.15;;;7.20;99.90;;;;;;4966915;28;20054;-74
2022/02/16 04:05:16;;;;;;;12.07;5.30;;;7.30;99.90;;;;;;4966732;29;20395;-74
2022/02/16 04:07:41;;;;;;;15.32;5.88;;;7.20;99.90;;;;;;4981629;28;20023;-73
2022/02/16 04:10:09;;;;;;;12.57;4.72;;;7.20;99.90;;;;;;4966921;29;20051;-76
2022/02/16 04:12:35;;;;;;;12.45;5.53;;;7.20;99.90;;;;;;4966878;29;20111;-75
2022/02/16 04:15:01;;;;;;;10.07;4.35;;;7.20;99.90;;;;;;4966519;28;20042;-74
2022/02/16 04:17:26;;;;;;;9.52;3.70;;;7.30;99.90;;;;;;4981348;28;20031;-75
2022/02/16 04:19:52;;;;;;;11.57;4.70;;;7.20;99.90;;;;;;4966294;29;20556;-75
2022/02/16 04:22:18;;;;;;;17.98;5.60;;;7.20;99.90;;;;;;4966805;29;20091;-75
2022/02/16 04:24:47;;;;;;;14.90;5.68;;;7.20;99.90;;;;;;4966693;28;20023;-75
2022/02/16 04:27:13;;;;;;;17.52;6.22;;;7.20;99.90;;;;;;4966188;28;20035;-75
2022/02/16 04:29:39;;;;;;;15.25;5.50;;;7.20;99.90;;;;;;4966513;28;20071;-77
2022/02/16 04:32:06;;;;;;;12.57;5.70;;;7.20;99.90;;;;;;4966591;29;20042;-73
2022/02/16 04:34:32;;;;;;;11.88;5.30;;;7.30;99.90;;;;;;4966690;29;20024;-74
2022/02/16 04:37:04;;;;;;;9.93;4.18;;;7.30;99.90;;;;;;4966664;28;20103;-75
2022/02/16 04:39:30;;;;;;;13.27;4.93;;;7.20;99.90;;;;;;4966138;29;20027;-75
2022/02/16 04:41:55;;;;;;;7.65;4.20;;;7.30;99.90;;;;;;4966554;29;20081;-75
2022/02/16 04:44:21;;;;;;;8.38;4.25;;;7.20;99.90;;;;;;4981032;28;20038;-75
2022/02/16 04:46:46;;;;;;;10.45;4.53;;;7.20;99.90;;;;;;4964993;29;20031;-75
2022/02/16 04:49:12;;;;;;;11.40;4.75;;;7.20;99.90;;;;;;4966510;28;20056;-75
2022/02/16 04:51:38;;;;;;;13.43;4.70;;;7.30;99.90;;;;;;4965312;29;20027;-74
2022/02/16 04:54:03;;;;;;;17.90;5.72;;;7.30;99.90;;;;;;4966292;29;20035;-76
2022/02/16 04:56:29;;;;;;;8.43;4.07;;;7.30;99.90;;;;;;4981204;28;20070;-75
2022/02/16 04:58:54;;;;;;;12.32;4.82;;;7.30;99.90;;;;;;4966455;29;20023;-73
2022/02/16 05:01:20;;;;;;;9.88;4.15;;;7.30;99.90;;;;;;4965994;29;20054;-74
2022/02/16 05:03:47;;;;;;;8.23;3.45;;;7.30;99.90;;;;;;4966490;28;20058;-74
2022/02/16 05:06:13;;;;;;;12.73;4.10;;;7.20;99.90;;;;;;4953498;28;20032;-74
2022/02/16 05:08:39;;;;;;;11.65;4.53;;;7.20;99.90;;;;;;4947227;29;20117;-73
2022/02/16 05:11:05;;;;;;;12.55;5.25;;;7.20;99.90;;;;;;4947736;29;20024;-75
2022/02/16 05:13:30;;;;;;;9.15;4.05;;;7.20;99.90;;;;;;4946195;29;20596;-76
2022/02/16 05:15:56;;;;;;;9.02;4.00;;;7.20;99.90;;;;;;4947172;29;20035;-75
2022/02/16 05:18:21;;;;;;;16.10;5.32;;;7.30;99.90;;;;;;4946938;29;20028;-75
2022/02/16 05:20:47;;;;;;;10.93;4.90;;;7.20;99.90;;;;;;4961486;29;20047;-77
2022/02/16 05:23:12;;;;;;;10.23;4.15;;;7.20;99.90;;;;;;4946820;29;20039;-77
2022/02/16 05:25:53;;;;;;;12.18;4.65;;;7.20;99.90;;;;;;4947301;29;20028;-76
2022/02/16 05:28:21;;;;;;;13.40;5.22;;;7.20;99.90;;;;;;4946589;29;20035;-76
2022/02/16 05:30:47;;;;;;;18.85;6.65;;;7.20;99.90;;;;;;4945217;29;20048;-74
2022/02/16 05:33:13;;;;;;;12.95;6.00;;;7.20;99.90;;;;;;4946744;29;20064;-74
2022/02/16 05:35:38;;;;;;;11.85;4.88;;;7.20;99.90;;;;;;4961213;29;20066;-75
2022/02/16 05:38:04;;;;;;;11.13;5.32;;;7.20;99.90;;;;;;4936105;29;20028;-75
2022/02/16 05:40:29;;;;;;;12.52;4.70;;;7.20;99.90;;;;;;4926634;29;20032;-74
2022/02/16 05:42:55;;;;;;;10.48;4.78;;;7.20;99.90;;;;;;4930328;29;20030;-74
2022/02/16 05:45:25;;;;;;;13.07;5.03;;;7.20;99.90;;;;;;4931598;29;20036;-74
2022/02/16 05:47:51;;;;;;;14.75;5.57;;;7.20;99.90;;;;;;4930787;29;20024;-74
2022/02/16 05:50:17;;;;;;;11.82;5.47;;;7.20;99.90;;;;;;4931039;29;20091;-74
2022/02/16 05:52:43;;;;;;;14.05;4.95;;;7.20;99.90;;;;;;4930002;29;20036;-76
2022/02/16 05:55:09;;;;;;;14.15;5.35;;;7.20;99.90;;;;;;4930861;29;20025;-75
2022/02/16 05:57:35;;;;;;;13.98;4.72;;;7.20;99.90;;;;;;4931058;29;20087;-75
2022/02/16 06:00:02;;;;;;;12.35;4.32;;;7.20;99.90;;;;;;4931311;29;20370;-75
2022/02/16 06:02:28;;;;;;;10.68;4.25;;;7.30;99.90;;;;;;4942581;29;20028;-75
2022/02/16 06:04:53;;;;;;;11.73;4.82;;;7.20;99.90;;;;;;4931002;29;20032;-75
2022/02/16 06:07:19;;;;;;;9.75;4.57;;;7.30;99.90;;;;;;4943381;29;20047;-75
2022/02/16 06:09:45;;;;;;;13.25;4.97;;;7.20;99.90;;;;;;4964173;29;20042;-75
2022/02/16 06:12:11;;;;;;;9.95;4.40;;;7.20;99.90;;;;;;4948517;29;20051;-75
2022/02/16 06:14:36;;;;;;;8.98;4.72;;;7.30;99.90;;;;;;4949936;29;20023;-74
2022/02/16 06:17:02;;;;;;;11.80;4.75;;;7.30;99.90;;;;;;4949715;29;20071;-75
2022/02/16 06:19:27;;;;;;;13.18;5.53;;;7.30;99.90;;;;;;4949298;29;20039;-76
2022/02/16 06:21:53;;;;;;;9.07;4.53;;;7.30;99.90;;;;;;4949755;29;20467;-76
2022/02/16 06:24:21;;;;;;;13.07;4.78;;;7.30;99.90;;;;;;4950412;29;20028;-76
2022/02/16 06:26:47;;;;;;;10.40;5.20;;;7.30;99.90;;;;;;4965591;29;20023;-74
2022/02/16 06:29:13;;;;;;;14.35;5.75;;;7.30;99.90;;;;;;4968484;29;20126;-75
2022/02/16 06:31:39;;;;;;;17.65;6.35;;;7.30;99.90;;;;;;4958220;29;20032;-73
2022/02/16 06:34:04;;;;;;;11.25;5.15;;;7.30;99.90;;;;;;4948601;29;20046;-74
2022/02/16 06:36:30;;;;;;;12.57;3.85;;;7.30;99.90;;;;;;4949288;29;20051;-76
2022/02/16 06:38:56;;;;;;;9.00;3.90;;;7.30;99.90;;;;;;4947046;29;21020;-75
2022/02/16 06:41:31;;;;;;;13.07;4.82;;;7.30;99.90;;;;;;4936608;29;20095;-76
2022/02/16 06:43:57;;;;;;;9.10;4.53;;;7.40;99.90;;;;;;4949121;29;20039;-76
2022/02/16 06:46:23;;;;;;;13.00;5.15;;;7.40;99.90;;;;;;4948857;29;20031;-75
2022/02/16 06:48:48;;;;;;;11.88;4.63;;;7.40;99.90;;;;;;4937143;29;20028;-76
2022/02/16 06:51:18;;;;;;;8.82;4.07;;;7.40;99.90;;;;;;4928731;29;20024;-76
2022/02/16 06:53:44;;;;;;;12.55;5.07;;;7.40;99.90;;;;;;4927353;29;20449;-75
2022/02/16 06:56:10;;;;;;;13.23;4.80;;;7.40;99.90;;;;;;4930037;29;20040;-76
2022/02/16 06:58:36;;;;;;;11.52;4.78;;;7.40;99.90;;;;;;4943703;29;20099;-76
2022/02/16 07:01:02;;;;;;;11.95;4.97;;;7.50;99.90;;;;;;4937392;29;20154;-76
2022/02/16 07:03:27;;;;;;;10.38;4.88;;;7.40;99.90;;;;;;4929128;29;20020;-75
2022/02/16 07:05:53;;;;;;;15.52;5.47;;;7.50;99.90;;;;;;4933211;29;20074;-73
2022/02/16 07:08:18;;;;;;;13.43;5.38;;;7.50;99.90;;;;;;4943114;29;20024;-75
2022/02/16 07:10:46;;;;;;;19.85;6.03;;;7.50;99.90;;;;;;4929837;29;20035;-78
2022/02/16 07:13:12;;;;;;;14.10;5.82;;;7.50;99.90;;;;;;4946322;28;20024;-74
2022/02/16 07:15:38;;;;;;;13.93;6.60;;;7.50;99.90;;;;;;4934437;29;20058;-75
2022/02/16 07:18:03;;;;;;;14.73;5.93;;;7.60;99.90;;;;;;4936027;29;20096;-76
2022/02/16 07:20:29;;;;;;;13.52;4.88;;;7.60;99.90;;;;;;4938436;29;20043;-77
2022/02/16 07:22:55;;;;;;;15.07;5.20;;;7.60;99.90;;;;;;4935143;29;20029;-73
2022/02/16 07:25:21;;;;;;;19.13;6.45;;;7.60;99.90;;;;;;4929423;29;20083;-74
2022/02/16 07:27:47;;;;;;;15.95;8.05;;;7.60;99.90;;;;;;4946654;29;20023;-73
2022/02/16 07:30:14;;;;;;;19.08;7.50;;;7.60;99.90;;;;;;4948375;29;20131;-76
2022/02/16 07:32:42;;;;;;;17.30;7.68;;;7.60;99.90;;;;;;4947987;29;20066;-75
2022/02/16 07:35:10;;;;;;;13.55;5.80;;;7.70;99.90;;;;;;4948066;29;20024;-74
2022/02/16 07:37:37;;;;;;;16.67;7.03;;;7.70;99.90;;;;;;4937866;29;20059;-75
2022/02/16 07:40:06;;;;;;;13.57;6.22;;;7.70;99.90;;;;;;4932881;29;20036;-74
2022/02/16 07:42:32;;;;;;;12.75;5.55;;;7.70;99.90;;;;;;4960092;28;20072;-75
2022/02/16 07:44:58;;;;;;;15.43;5.55;;;7.70;99.90;;;;;;4946976;29;20028;-77
2022/02/16 07:47:24;;;;;;;9.23;4.50;;;7.70;99.90;;;;;;4946215;29;20123;-76
2022/02/16 07:49:50;;;;;;;15.45;5.15;;;7.70;99.90;;;;;;4947980;29;20020;-76
2022/02/16 07:52:16;;;;;;;10.90;4.93;;;7.70;99.90;;;;;;4947836;29;20031;-75
2022/02/16 07:54:42;;;;;;;11.77;4.22;;;7.70;99.90;;;;;;4947575;29;20031;-76
2022/02/16 07:57:08;;;;;;;11.52;5.03;;;7.70;99.90;;;;;;4962379;29;20091;-76
2022/02/16 07:59:35;;;;;;;12.35;4.90;;;7.70;99.90;;;;;;4929703;29;20036;-74
2022/02/16 08:02:02;;;;;;;9.65;4.32;;;7.70;99.90;;;;;;4947353;29;20043;-75
2022/02/16 08:04:30;;;;;;;8.32;3.83;;;7.70;99.90;;;;;;4944881;29;20027;-74
2022/02/16 08:06:56;;;;;;;12.90;4.07;;;7.80;99.90;;;;;;4947596;29;20059;-75
2022/02/16 08:09:22;;;;;;;9.23;4.63;;;7.80;99.90;;;;;;4945998;29;20480;-74
2022/02/16 08:11:48;;;;;;;12.77;6.03;;;7.80;99.90;;;;;;4946402;29;20527;-75
2022/02/16 08:14:14;;;;;;;16.35;4.75;;;7.80;99.90;;;;;;4945027;29;20052;-74
2022/02/16 08:16:41;;;;;;;12.43;4.75;;;7.80;99.90;;;;;;4944743;29;20043;-74
2022/02/16 08:19:10;;;;;;;14.52;4.80;;;7.80;99.90;;;;;;4945282;29;20020;-76
2022/02/16 08:21:37;;;;;;;13.85;5.25;;;7.80;99.90;;;;;;4929415;29;20029;-72
2022/02/16 08:24:13;;;;;;;11.63;5.80;;;7.90;99.90;;;;;;4937450;29;20027;-75
2022/02/16 08:26:40;;;;;;;9.35;4.53;;;7.80;99.90;;;;;;4945833;29;20024;-75
2022/02/16 08:29:24;;;;;;;13.25;4.35;;;7.90;99.90;;;;;;4944385;29;20131;-73
2022/02/16 08:31:51;;;;;;;10.05;4.72;;;7.90;99.90;;;;;;4943762;29;20035;-74
2022/02/16 08:34:18;;;;;;;10.38;4.78;;;7.90;99.90;;;;;;4942025;29;20115;-76
2022/02/16 08:36:44;;;;;;;9.52;3.63;;;7.90;99.90;;;;;;4946447;29;20489;-76
2022/02/16 08:39:10;;;;;;;9.98;4.72;;;7.90;99.90;;;;;;4929263;29;20372;-76
2022/02/16 08:41:38;;;;;;;9.52;5.20;;;7.90;99.90;;;;;;4939334;29;20050;-73
2022/02/16 08:44:04;;;;;;;10.30;4.50;;;8.00;99.90;;;;;;4944594;29;20024;-78
2022/02/16 08:46:30;;;;;;;11.65;4.00;;;8.00;99.90;;;;;;4938963;29;20039;-73
2022/02/16 08:49:00;;;;;;;10.32;4.20;;;8.00;99.90;;;;;;4940657;29;20055;-74
2022/02/16 08:51:28;;;;;;;10.50;3.60;;;8.00;99.90;;;;;;4963785;29;20027;-74
2022/02/16 08:53:54;;;;;;;10.60;4.05;;;8.10;99.90;;;;;;4955135;28;20039;-74
2022/02/16 08:56:20;;;;;;;12.13;4.45;;;8.10;99.90;;;;;;4945490;29;20039;-75
2022/02/16 08:58:45;;;;;;;8.63;3.70;;;8.10;99.90;;;;;;4950250;29;20139;-73
2022/02/16 09:01:11;;;;;;;7.68;3.45;;;8.10;99.90;;;;;;4962485;28;20035;-74
2022/02/16 09:03:38;;;;;;;6.50;3.22;;;8.20;99.90;;;;;;4964513;28;20070;-74
2022/02/16 09:06:06;;;;;;;8.85;3.35;;;8.20;99.90;;;;;;4943108;28;20032;-73
2022/02/16 09:08:32;;;;;;;9.75;4.18;;;8.20;99.90;;;;;;4926831;29;20039;-73
2022/02/16 09:11:00;;;;;;;8.57;3.15;;;8.20;99.90;;;;;;4926200;29;20032;-75
2022/02/16 09:13:27;;;;;;;9.77;3.60;;;8.20;99.90;;;;;;4945253;29;20043;-73
2022/02/16 09:15:53;;;;;;;5.55;2.22;;;8.30;99.90;;;;;;4958417;28;20065;-75
2022/02/16 09:18:22;;;;;;;13.77;4.28;;;8.20;99.90;;;;;;4940682;29;20087;-73
2022/02/16 09:20:48;;;;;;;11.88;4.57;;;8.30;99.90;;;;;;4940065;29;20075;-74
2022/02/16 09:23:15;;;;;;;10.10;4.90;;;8.30;99.90;;;;;;4941549;29;20044;-74
2022/02/16 09:25:41;;;;;;;9.13;3.72;;;8.30;99.90;;;;;;4943307;29;20046;-73
2022/02/16 09:28:07;;;;;;;7.53;3.63;;;8.30;99.90;;;;;;4966447;29;20023;-78
2022/02/16 09:30:33;;;;;;;14.65;4.82;;;8.30;99.90;;;;;;4969152;29;20090;-71
2022/02/16 09:32:59;;;;;;;13.45;4.57;;;8.40;99.90;;;;;;4967380;29;20031;-75
2022/02/16 09:35:24;;;;;;;11.80;4.85;;;8.40;99.90;;;;;;4969066;28;20097;-75
2022/02/16 09:37:50;;;;;;;13.23;4.63;;;8.50;99.90;;;;;;4967416;29;20038;-74
2022/02/16 09:40:16;;;;;;;7.00;3.30;;;8.50;99.90;;;;;;4967177;29;20031;-74
2022/02/16 09:42:44;;;;;;;9.50;3.83;;;8.50;99.90;;;;;;4949161;29;20050;-75
2022/02/16 09:45:15;;;;;;;6.43;3.03;;;8.60;99.90;;;;;;4958195;29;20315;-74
2022/02/16 09:47:43;;;;;;;8.02;2.55;;;8.60;99.90;;;;;;4968654;29;20027;-76
2022/02/16 09:50:11;;;;;;;6.30;2.55;;;8.60;99.90;;;;;;4967656;29;20122;-75
2022/02/16 09:52:39;;;;;;;6.38;2.38;;;8.70;99.90;;;;;;4968831;29;20392;-74
2022/02/16 09:55:08;;;;;;;7.47;2.70;;;8.70;99.90;;;;;;4969345;29;20032;-77
2022/02/16 09:57:35;;;;;;;4.53;2.15;;;8.80;99.90;;;;;;4949843;28;20039;-75
2022/02/16 10:00:01;;;;;;;5.82;2.22;;;8.80;99.90;;;;;;4942911;29;20108;-75
2022/02/16 10:02:43;;;;;;;4.25;2.40;;;8.90;99.90;;;;;;4930970;29;20032;-73
2022/02/16 10:05:20;;;;;;;4.60;1.90;;;8.90;99.90;;;;;;4934566;29;20024;-74
2022/02/16 10:07:49;;;;;;;4.53;1.85;;;9.00;99.90;;;;;;4942151;29;20388;-73
2022/02/16 10:10:21;;;;;;;4.50;2.28;;;9.00;99.90;;;;;;4946970;29;20504;-75
2022/02/16 10:12:50;;;;;;;3.72;2.15;;;9.00;99.90;;;;;;4946109;29;20052;-72
2022/02/16 10:15:35;;;;;;;2.85;1.30;;;9.10;99.90;;;;;;4962840;28;20027;-77
2022/02/16 10:18:10;;;;;;;3.15;1.42;;;9.10;99.90;;;;;;4946865;29;20027;-73
2022/02/16 10:20:37;;;;;;;4.05;1.20;;;9.10;99.90;;;;;;4946802;29;20039;-74
2022/02/16 10:25:54;;;;;;;2.58;1.52;;;9.20;99.90;;;;;;5080652;28;20422;-74
2022/02/16 10:28:44;;;;;;;3.95;1.63;;;9.30;99.90;;;;;;5062380;28;20029;-76
2022/02/16 10:31:11;;;;;;;2.33;0.88;;;9.30;99.90;;;;;;5056782;28;20117;-74
2022/02/16 10:33:43;;;;;;;1.83;0.70;;;9.40;99.90;;;;;;5060282;28;20033;-72
2022/02/16 10:36:14;;;;;;;2.35;1.45;;;9.40;99.90;;;;;;5071464;28;20028;-73
2022/02/16 10:39:00;;;;;;;2.70;1.17;;;9.40;99.90;;;;;;5063542;28;20075;-77
2022/02/16 10:41:30;;;;;;;3.83;1.58;;;9.50;99.90;;;;;;5061418;28;20025;-74
2022/02/16 10:43:58;;;;;;;3.63;1.30;;;9.50;99.90;;;;;;5066214;28;20033;-77
2022/02/16 10:46:27;;;;;;;3.38;1.60;;;9.50;99.90;;;;;;5065826;28;20021;-77
2022/02/16 10:49:09;;;;;;;2.90;1.48;;;9.70;99.90;;;;;;5051513;28;20038;-76
2022/02/16 10:51:39;;;;;;;3.25;1.35;;;9.60;99.90;;;;;;5053567;28;20052;-76
2022/02/16 10:54:24;;;;;;;1.73;1.13;;;9.60;99.90;;;;;;5043902;28;20040;-73
2022/02/16 10:56:52;;;;;;;2.63;1.20;;;9.60;99.90;;;;;;5042493;28;20056;-73
2022/02/16 10:59:21;;;;;;;2.50;1.42;;;9.70;99.90;;;;;;5042953;28;20084;-73
2022/02/16 11:01:47;;;;;;;3.85;1.70;;;9.70;99.90;;;;;;5058883;28;20128;-74
2022/02/16 11:04:18;;;;;;;2.45;1.00;;;9.80;99.90;;;;;;5048464;28;20073;-75
2022/02/16 11:06:47;;;;;;;3.63;1.80;;;9.80;99.90;;;;;;5048301;28;20057;-73
2022/02/16 11:09:25;;;;;;;1.23;0.88;;;9.80;99.90;;;;;;5040777;28;20113;-77
2022/02/16 11:11:54;;;;;;;1.50;0.82;;;9.90;99.90;;;;;;5049935;28;20026;-73
2022/02/16 11:14:25;;;;;;;0.82;0.50;;;9.90;99.90;;;;;;5044951;28;20030;-72
2022/02/16 11:16:51;;;;;;;2.08;1.10;;;9.90;99.90;;;;;;5038918;28;20079;-72
2022/02/16 11:19:35;;;;;;;1.65;0.82;;;9.90;99.90;;;;;;5047678;28;20058;-76
2022/02/16 11:22:10;;;;;;;2.65;0.73;;;9.90;99.90;;;;;;5044419;28;20137;-73
2022/02/16 11:24:43;;;;;;;1.00;0.65;;;10.00;99.90;;;;;;5039603;28;20050;-71
2022/02/16 11:27:22;;;;;;;1.27;0.80;;;10.00;99.90;;;;;;5038751;28;20041;-77
2022/02/16 11:29:48;;;;;;;3.28;0.95;;;10.00;99.90;;;;;;5040067;28;20021;-71
2022/02/16 11:32:15;;;;;;;1.75;0.70;;;10.00;99.90;;;;;;5039004;28;20494;-70
2022/02/16 11:34:42;;;;;;;1.25;0.82;;;10.10;99.90;;;;;;5040443;28;20085;-72
2022/02/16 11:37:10;;;;;;;2.55;0.93;;;10.00;99.90;;;;;;5031037;28;20026;-72
2022/02/16 11:39:48;;;;;;;1.15;0.65;;;10.00;99.90;;;;;;5043312;28;20026;-73
2022/02/16 11:42:20;;;;;;;0.47;0.32;;;10.10;99.90;;;;;;5030344;28;20050;-71
2022/02/16 11:44:56;;;;;;;2.28;0.90;;;10.10;99.90;;;;;;5026827;28;20038;-75
2022/02/16 11:47:41;;;;;;;2.22;1.13;;;10.10;99.90;;;;;;5038096;28;20033;-73
2022/02/16 11:50:09;;;;;;;2.30;1.02;;;10.10;99.90;;;;;;5029339;28;20521;-77
2022/02/16 11:52:50;;;;;;;2.25;1.23;;;10.20;99.90;;;;;;5045913;28;20095;-76
2022/02/16 11:55:24;;;;;;;2.70;1.10;;;10.20;99.90;;;;;;5046768;28;20481;-73
2022/02/16 11:58:01;;;;;;;1.88;1.40;;;10.20;99.90;;;;;;5046152;28;20789;-72
2022/02/16 12:00:35;;;;;;;2.05;1.05;;;10.20;99.90;;;;;;5046557;28;20064;-73
2022/02/16 12:03:13;;;;;;;;;;;10.20;99.90;;;;;;5027529;28;20037;-73
2022/02/16 12:05:59;;;;;;;8.60;1.55;;;10.30;99.90;;;;;;5024799;28;20293;-72
2022/02/16 12:08:36;;;;;;;6.20;2.17;;;10.30;99.90;;;;;;5026068;28;20520;-73
2022/02/16 12:11:25;;;;;;;4.95;2.28;;;10.40;99.90;;;;;;5034133;28;20085;-72
2022/02/16 12:14:06;;;;;;;2.30;1.27;;;10.40;99.90;;;;;;5043391;28;20057;-75
2022/02/16 12:16:44;;;;;;;4.00;1.95;;;10.40;99.90;;;;;;5034239;28;20030;-73
2022/02/16 12:19:15;;;;;;;3.83;1.50;;;10.40;99.90;;;;;;5032242;28;20030;-74
2022/02/16 12:21:47;;;;;;;6.15;1.90;;;10.50;99.90;;;;;;5034994;28;20109;-75
2022/02/16 12:24:15;;;;;;;4.47;2.42;;;10.50;99.90;;;;;;5028562;28;20485;-75
2022/02/16 12:26:47;;;;;;;7.03;1.88;;;10.50;99.90;;;;;;5034463;28;20065;-74
2022/02/16 12:29:16;;;;;;;6.65;1.73;;;10.60;99.90;;;;;;5028595;28;20037;-77
2022/02/16 12:31:55;;;;;;;3.45;2.13;;;10.60;99.90;;;;;;5037673;28;20113;-71
2022/02/16 12:34:23;;;;;;;3.60;2.38;;;10.60;99.90;;;;;;5029618;28;20097;-74
2022/02/16 12:36:49;;;;;;;10.07;2.15;;;10.60;99.90;;;;;;5039380;28;20037;-75
2022/02/16 12:39:15;;;;;;;7.72;1.95;;;10.70;99.90;;;;;;5026026;28;20060;-76
2022/02/16 12:41:42;;;;;;;4.90;1.95;;;10.80;99.90;;;;;;5039951;28;20038;-72
2022/02/16 12:44:20;;;;;;;6.50;2.75;;;10.70;99.90;;;;;;5038217;28;20044;-75
2022/02/16 12:46:50;;;;;;;8.60;2.42;;;10.80;99.90;;;;;;5025854;28;20037;-76
2022/02/16 12:49:22;;;;;;;8.90;1.95;;;10.80;99.90;;;;;;5040457;28;20026;-76
2022/02/16 12:51:51;;;;;;;3.10;1.42;;;10.90;99.90;;;;;;5043752;28;20044;-74
2022/02/16 12:54:19;;;;;;;4.63;2.38;;;10.90;99.90;;;;;;5033293;28;20029;-76
2022/02/16 12:56:50;;;;;;;5.60;2.47;;;11.00;99.90;;;;;;5030847;28;20038;-73